Sacramento, California
Traffic Map
Current Weather Conditions
Sacramento, California
Clear
Clear

Feels Like: 8°
Wind Chill: Ceiling: Unl
Heat Index: Visibility: 10mi
Dew Point: Wind: 0mph
Humidity: 86% Direction: ° ()
Pressure: 30.08in Gusts: 0mph
Raw Report DataKSAC 291353Z 00000KT 10SM CLR 08/06 A3008 RMK AO2 SLP185 T00830061
Traffic Incident Summary
Active as of:
Severity:
Category:
InformationThere was an issue retrieving the traffic information for this location. Please try a different location or try again shortly.
Advertisements
Track Severe Weather on mobile